Time;durP1;ratioP1;P1;durP2;ratioP2;P2;SDS_P1;SDS_P2;PMS_P1;PMS_P2;Temp;Humidity;BMP_temperature;BMP_pressure;BME280_temperature;BME280_humidity;BME280_pressure;Samples;Min_cycle;Max_cycle;Signal;HPM_P1;HPM_P2
2022/05/04 00:00:03;;;;;;;9.83;7.00;;;;;;;;;;5032845;28;20238;-84
2022/05/04 00:02:31;;;;;;;7.77;6.97;;;;;;;;;;5033726;28;20210;-84
2022/05/04 00:04:58;;;;;;;7.67;6.87;;;;;;;;;;5033614;28;20241;-84
2022/05/04 00:07:25;;;;;;;7.77;6.80;;;;;;;;;;5033279;28;20242;-84
2022/05/04 00:09:52;;;;;;;7.43;6.57;;;;;;;;;;5032702;28;20235;-84
2022/05/04 00:12:20;;;;;;;9.07;7.30;;;;;;;;;;5032666;28;20223;-84
2022/05/04 00:14:47;;;;;;;8.33;7.30;;;;;;;;;;5032446;28;20234;-83
2022/05/04 00:17:14;;;;;;;9.63;7.47;;;;;;;;;;5032720;28;20234;-84
2022/05/04 00:19:41;;;;;;;8.93;7.00;;;;;;;;;;5032240;28;20265;-84
2022/05/04 00:22:08;;;;;;;7.73;6.83;;;;;;;;;;5032681;28;20214;-84
2022/05/04 00:24:35;;;;;;;10.07;7.20;;;;;;;;;;5032914;28;20245;-83
2022/05/04 00:27:02;;;;;;;8.33;7.47;;;;;;;;;;5032638;28;20233;-84
2022/05/04 00:29:31;;;;;;;7.57;6.83;;;;;;;;;;5032204;28;20238;-84
2022/05/04 00:31:58;;;;;;;8.03;7.00;;;;;;;;;;5036184;28;20725;-84
2022/05/04 00:34:25;;;;;;;7.40;6.70;;;;;;;;;;5034828;28;20234;-83
2022/05/04 00:36:52;;;;;;;7.97;6.87;;;;;;;;;;5034870;28;20230;-84
2022/05/04 00:39:19;;;;;;;7.13;6.47;;;;;;;;;;5033696;28;20706;-83
2022/05/04 00:41:46;;;;;;;7.90;7.10;;;;;;;;;;5034743;28;20217;-84
2022/05/04 00:44:14;;;;;;;7.20;6.50;;;;;;;;;;5034693;28;20241;-83
2022/05/04 00:46:42;;;;;;;11.00;6.80;;;;;;;;;;5035404;28;20249;-84
2022/05/04 00:49:09;;;;;;;7.87;7.17;;;;;;;;;;5034527;28;20230;-83
2022/05/04 00:51:37;;;;;;;8.07;7.27;;;;;;;;;;5034967;28;20631;-83
2022/05/04 00:54:04;;;;;;;8.47;7.57;;;;;;;;;;5039187;28;20236;-84
2022/05/04 00:56:31;;;;;;;9.70;7.70;;;;;;;;;;5039427;28;20239;-84
2022/05/04 00:58:58;;;;;;;10.27;7.80;;;;;;;;;;5036600;28;20240;-83
2022/05/04 01:01:26;;;;;;;8.63;7.83;;;;;;;;;;5022072;28;20201;-83
2022/05/04 01:03:54;;;;;;;8.37;7.47;;;;;;;;;;5017984;28;20237;-84
2022/05/04 01:06:21;;;;;;;8.50;7.47;;;;;;;;;;5025372;28;20241;-84
2022/05/04 01:08:49;;;;;;;8.23;7.43;;;;;;;;;;5018380;28;20215;-84
2022/05/04 01:11:16;;;;;;;7.70;7.00;;;;;;;;;;5014483;28;20238;-84
2022/05/04 01:13:43;;;;;;;8.00;7.27;;;;;;;;;;5012562;28;20234;-83
2022/05/04 01:16:11;;;;;;;8.73;7.83;;;;;;;;;;5012880;28;20227;-84
2022/05/04 01:18:38;;;;;;;8.10;7.27;;;;;;;;;;5012285;28;20211;-84
2022/05/04 01:21:07;;;;;;;9.23;6.70;;;;;;;;;;5013063;28;20203;-84
2022/05/04 01:23:35;;;;;;;9.27;7.63;;;;;;;;;;5012348;28;20231;-83
2022/05/04 01:26:02;;;;;;;11.63;7.10;;;;;;;;;;5012624;28;20231;-84
2022/05/04 01:28:29;;;;;;;8.07;7.10;;;;;;;;;;5012558;28;20207;-84
2022/05/04 01:30:56;;;;;;;11.07;7.13;;;;;;;;;;5012578;28;20230;-83
2022/05/04 01:33:23;;;;;;;8.13;7.37;;;;;;;;;;5012596;28;20222;-84
2022/05/04 01:35:51;;;;;;;8.50;7.17;;;;;;;;;;5011688;28;20246;-83
2022/05/04 01:38:18;;;;;;;8.20;7.33;;;;;;;;;;5012420;28;20218;-83
2022/05/04 01:40:46;;;;;;;8.87;7.47;;;;;;;;;;5024766;28;20257;-83
2022/05/04 01:43:13;;;;;;;8.63;7.73;;;;;;;;;;5016138;28;20203;-84
2022/05/04 01:45:40;;;;;;;12.07;7.67;;;;;;;;;;5015760;28;20742;-83
2022/05/04 01:48:08;;;;;;;8.63;7.13;;;;;;;;;;5015930;28;20211;-84
2022/05/04 01:50:35;;;;;;;8.00;7.20;;;;;;;;;;5014918;28;20274;-84
2022/05/04 01:53:02;;;;;;;9.83;6.60;;;;;;;;;;5015654;28;20238;-84
2022/05/04 01:55:29;;;;;;;7.90;7.10;;;;;;;;;;5014859;28;20239;-83
2022/05/04 01:57:58;;;;;;;7.93;7.13;;;;;;;;;;5015461;28;20207;-84
2022/05/04 02:00:25;;;;;;;7.93;6.97;;;;;;;;;;5014612;28;20258;-84
2022/05/04 02:02:52;;;;;;;11.37;6.67;;;;;;;;;;5015469;28;20218;-84
2022/05/04 02:05:19;;;;;;;7.20;6.57;;;;;;;;;;5014625;28;20230;-84
2022/05/04 02:07:47;;;;;;;7.23;6.53;;;;;;;;;;5015305;28;20196;-84
2022/05/04 02:10:14;;;;;;;9.80;7.20;;;;;;;;;;5014534;28;20238;-83
2022/05/04 02:12:41;;;;;;;8.77;6.50;;;;;;;;;;5015282;28;20223;-84
2022/05/04 02:15:10;;;;;;;7.40;6.60;;;;;;;;;;5014530;28;20737;-83
2022/05/04 02:17:38;;;;;;;9.37;6.90;;;;;;;;;;5014856;28;20218;-84
2022/05/04 02:20:06;;;;;;;7.60;6.70;;;;;;;;;;5014470;28;20239;-83
2022/05/04 02:22:33;;;;;;;7.13;6.40;;;;;;;;;;5018402;28;20311;-83
2022/05/04 02:25:00;;;;;;;8.37;6.47;;;;;;;;;;5018345;28;20238;-83
2022/05/04 02:27:27;;;;;;;6.90;6.30;;;;;;;;;;5015017;28;20218;-83
2022/05/04 02:29:54;;;;;;;6.90;6.27;;;;;;;;;;5014497;28;20258;-83
2022/05/04 02:32:23;;;;;;;8.10;6.07;;;;;;;;;;5015444;28;20284;-84
2022/05/04 02:40:19;;;;;;;6.70;6.00;;;;;;;;;;5013795;28;20249;-83
2022/05/04 02:42:46;;;;;;;6.40;5.70;;;;;;;;;;5014804;28;20231;-84
2022/05/04 02:45:14;;;;;;;6.13;5.63;;;;;;;;;;5014471;28;20290;-83
2022/05/04 02:47:42;;;;;;;7.37;6.30;;;;;;;;;;5014725;28;20207;-83
2022/05/04 02:50:10;;;;;;;8.90;5.60;;;;;;;;;;5013652;28;20235;-83
2022/05/04 02:52:37;;;;;;;8.90;6.00;;;;;;;;;;5014999;28;20715;-84
2022/05/04 02:55:04;;;;;;;8.73;6.63;;;;;;;;;;5014388;28;20242;-83
2022/05/04 02:57:31;;;;;;;6.80;5.77;;;;;;;;;;5023597;28;20207;-84
2022/05/04 02:59:58;;;;;;;6.27;5.50;;;;;;;;;;5014095;28;20238;-84
2022/05/04 03:02:27;;;;;;;6.53;5.87;;;;;;;;;;5015317;28;20200;-83
2022/05/04 03:04:55;;;;;;;6.83;6.23;;;;;;;;;;5014457;28;20230;-83
2022/05/04 03:07:22;;;;;;;6.23;5.67;;;;;;;;;;5015026;28;20598;-84
2022/05/04 03:09:49;;;;;;;8.13;5.93;;;;;;;;;;5014412;28;20235;-83
2022/05/04 03:12:16;;;;;;;6.77;5.50;;;;;;;;;;5013959;28;20231;-83
2022/05/04 03:14:44;;;;;;;5.97;5.37;;;;;;;;;;5013447;28;20294;-84
2022/05/04 03:17:11;;;;;;;6.60;5.80;;;;;;;;;;5014322;28;20306;-83
2022/05/04 03:19:38;;;;;;;6.63;5.80;;;;;;;;;;5013209;28;20231;-83
2022/05/04 03:22:07;;;;;;;6.80;5.97;;;;;;;;;;5013663;28;20215;-83
2022/05/04 03:24:34;;;;;;;7.00;6.40;;;;;;;;;;5013335;28;20241;-83
2022/05/04 03:27:01;;;;;;;6.67;6.00;;;;;;;;;;5014124;28;20231;-84
2022/05/04 03:29:28;;;;;;;7.80;6.50;;;;;;;;;;5013136;28;20242;-84
2022/05/04 03:31:55;;;;;;;6.80;5.97;;;;;;;;;;5013962;28;20223;-84
2022/05/04 03:34:22;;;;;;;7.33;6.40;;;;;;;;;;5013106;28;20715;-83
2022/05/04 03:36:49;;;;;;;7.70;6.40;;;;;;;;;;5013579;28;20232;-84
2022/05/04 03:39:18;;;;;;;6.97;5.93;;;;;;;;;;5012863;28;20711;-84
2022/05/04 03:41:45;;;;;;;7.40;6.30;;;;;;;;;;5023196;28;20222;-84
2022/05/04 03:44:12;;;;;;;7.30;6.60;;;;;;;;;;5034434;28;20246;-84
2022/05/04 03:46:43;;;;;;;7.43;6.67;;;;;;;;;;5031435;28;20235;-84
2022/05/04 03:49:11;;;;;;;13.50;6.50;;;;;;;;;;5022825;28;20239;-84
2022/05/04 03:51:38;;;;;;;7.70;6.90;;;;;;;;;;5014083;28;20211;-84
2022/05/04 03:54:05;;;;;;;9.47;6.70;;;;;;;;;;5013055;28;20246;-84
2022/05/04 03:56:34;;;;;;;7.03;6.03;;;;;;;;;;5013419;28;20246;-84
2022/05/04 03:59:01;;;;;;;12.10;6.43;;;;;;;;;;5013025;28;20227;-84
2022/05/04 04:01:28;;;;;;;7.00;6.17;;;;;;;;;;5013141;28;20212;-84
2022/05/04 04:03:55;;;;;;;6.87;6.17;;;;;;;;;;5012583;28;20239;-84
2022/05/04 04:06:22;;;;;;;7.73;6.70;;;;;;;;;;5012974;28;20235;-84
2022/05/04 04:08:49;;;;;;;7.50;6.80;;;;;;;;;;5012692;28;20258;-84
2022/05/04 04:11:16;;;;;;;8.03;6.70;;;;;;;;;;5013284;28;20207;-84
2022/05/04 04:13:45;;;;;;;7.93;6.40;;;;;;;;;;5012420;28;20741;-84
2022/05/04 04:16:12;;;;;;;7.70;6.90;;;;;;;;;;5013206;28;20228;-84
2022/05/04 04:18:39;;;;;;;8.80;7.13;;;;;;;;;;5012389;28;20214;-84
2022/05/04 04:23:51;;;;;;;6.83;6.23;;;;;;;;;;5012416;28;20247;-84
2022/05/04 04:26:18;;;;;;;7.87;7.03;;;;;;;;;;5012517;28;20234;-84
2022/05/04 04:28:46;;;;;;;8.00;7.20;;;;;;;;;;5012031;28;20211;-84
2022/05/04 04:31:13;;;;;;;8.33;7.30;;;;;;;;;;5012721;28;20212;-84
2022/05/04 04:33:40;;;;;;;8.77;7.27;;;;;;;;;;5012049;28;20223;-84
2022/05/04 04:36:08;;;;;;;6.90;6.30;;;;;;;;;;5012689;28;20311;-84
2022/05/04 04:38:35;;;;;;;13.47;7.67;;;;;;;;;;5011921;28;20207;-84
2022/05/04 04:41:02;;;;;;;8.80;6.57;;;;;;;;;;5012923;28;20203;-84
2022/05/04 04:43:29;;;;;;;7.30;6.10;;;;;;;;;;5012353;28;20203;-84
2022/05/04 04:45:58;;;;;;;7.73;6.93;;;;;;;;;;5013211;28;20235;-85
2022/05/04 04:48:25;;;;;;;13.00;6.70;;;;;;;;;;5012512;28;20232;-84
2022/05/04 04:50:52;;;;;;;6.67;6.07;;;;;;;;;;5011792;28;20239;-83
2022/05/04 04:53:19;;;;;;;7.80;6.13;;;;;;;;;;5019686;28;20230;-84
2022/05/04 04:55:47;;;;;;;9.90;5.50;;;;;;;;;;5032951;28;20261;-84
2022/05/04 04:58:15;;;;;;;6.67;5.97;;;;;;;;;;5033574;28;20206;-83
2022/05/04 05:00:42;;;;;;;6.80;5.77;;;;;;;;;;5031706;28;20246;-83
2022/05/04 05:03:10;;;;;;;13.13;6.50;;;;;;;;;;5032365;28;20203;-82
2022/05/04 05:05:41;;;;;;;8.97;5.73;;;;;;;;;;5031230;28;20792;-82
2022/05/04 05:08:08;;;;;;;6.97;5.90;;;;;;;;;;5032339;28;20619;-84
2022/05/04 05:10:36;;;;;;;6.97;6.27;;;;;;;;;;5031368;28;20249;-82
2022/05/04 05:13:03;;;;;;;7.97;6.53;;;;;;;;;;5033143;28;20265;-83
2022/05/04 05:18:16;;;;;;;9.53;6.00;;;;;;;;;;5031763;28;20213;-83
2022/05/04 05:20:43;;;;;;;7.33;6.07;;;;;;;;;;5015745;28;20238;-83
2022/05/04 05:23:10;;;;;;;7.47;6.07;;;;;;;;;;5016643;28;20199;-84
2022/05/04 05:25:38;;;;;;;6.23;5.73;;;;;;;;;;5015972;28;20243;-84
2022/05/04 05:28:06;;;;;;;6.60;5.90;;;;;;;;;;5017387;28;20207;-84
2022/05/04 05:30:33;;;;;;;9.53;6.47;;;;;;;;;;5017041;28;20287;-84
2022/05/04 05:33:00;;;;;;;6.43;5.80;;;;;;;;;;5017448;28;20239;-84
2022/05/04 05:35:28;;;;;;;6.63;5.80;;;;;;;;;;5016460;28;20243;-84
2022/05/04 05:37:56;;;;;;;10.47;6.03;;;;;;;;;;5024991;28;20200;-83
2022/05/04 05:40:23;;;;;;;6.50;5.90;;;;;;;;;;5015922;28;20240;-84
2022/05/04 05:42:50;;;;;;;7.07;6.23;;;;;;;;;;5016661;28;20211;-84
2022/05/04 05:45:17;;;;;;;6.50;5.73;;;;;;;;;;5015733;28;20235;-84
2022/05/04 05:47:44;;;;;;;11.53;6.40;;;;;;;;;;5016534;28;20218;-84
2022/05/04 05:50:11;;;;;;;7.50;6.50;;;;;;;;;;5015785;28;20231;-85
2022/05/04 05:52:40;;;;;;;6.83;6.20;;;;;;;;;;5016280;28;20269;-83
2022/05/04 05:55:08;;;;;;;7.47;6.10;;;;;;;;;;5015269;28;20242;-84
2022/05/04 05:57:35;;;;;;;10.83;6.40;;;;;;;;;;5015784;28;20208;-83
2022/05/04 06:00:02;;;;;;;11.17;6.20;;;;;;;;;;5015158;28;20242;-83
2022/05/04 06:02:29;;;;;;;8.20;6.53;;;;;;;;;;5015726;28;20301;-83
2022/05/04 06:04:56;;;;;;;9.27;6.37;;;;;;;;;;5015337;28;20246;-82
2022/05/04 06:07:23;;;;;;;9.00;6.00;;;;;;;;;;5015338;28;20239;-84
2022/05/04 06:09:53;;;;;;;7.87;6.17;;;;;;;;;;5015417;28;20235;-84
2022/05/04 06:12:20;;;;;;;7.07;6.10;;;;;;;;;;5016070;28;20262;-86
2022/05/04 06:14:47;;;;;;;7.33;6.53;;;;;;;;;;5015148;28;20714;-83
2022/05/04 06:17:14;;;;;;;7.57;6.77;;;;;;;;;;5015880;28;20298;-84
2022/05/04 06:19:41;;;;;;;8.53;6.50;;;;;;;;;;5015294;28;20236;-84
2022/05/04 06:22:08;;;;;;;8.93;6.73;;;;;;;;;;5015605;28;20676;-84
2022/05/04 06:24:35;;;;;;;8.33;6.57;;;;;;;;;;5023646;28;20609;-84
2022/05/04 06:27:04;;;;;;;8.03;6.60;;;;;;;;;;5016653;28;20240;-84
2022/05/04 06:35:03;;;;;;;8.73;7.17;;;;;;;;;;5014938;28;20750;-83
2022/05/04 06:37:30;;;;;;;9.87;7.07;;;;;;;;;;5026707;28;20738;-83
2022/05/04 06:39:57;;;;;;;7.97;7.13;;;;;;;;;;5040785;28;20300;-83
2022/05/04 06:42:25;;;;;;;9.57;7.10;;;;;;;;;;5043163;28;20260;-83
2022/05/04 06:44:52;;;;;;;7.63;6.67;;;;;;;;;;5033036;28;20226;-84
2022/05/04 06:47:20;;;;;;;7.43;6.60;;;;;;;;;;5038286;28;20249;-82
2022/05/04 06:49:47;;;;;;;7.90;7.07;;;;;;;;;;5040323;28;20761;-83
2022/05/04 06:52:14;;;;;;;6.23;5.63;;;;;;;;;;5053677;28;20210;-83
2022/05/04 06:54:41;;;;;;;8.93;6.13;;;;;;;;;;5052797;28;20635;-84
2022/05/04 06:57:08;;;;;;;11.27;6.50;;;;;;;;;;5052928;28;20665;-82
2022/05/04 06:59:36;;;;;;;8.13;6.83;;;;;;;;;;5046936;28;20237;-83
2022/05/04 07:02:04;;;;;;;7.43;6.13;;;;;;;;;;5053389;28;20234;-83
2022/05/04 07:04:31;;;;;;;9.47;6.77;;;;;;;;;;5052797;28;20240;-83
2022/05/04 07:06:58;;;;;;;6.67;5.97;;;;;;;;;;5044636;28;20796;-83
2022/05/04 07:09:26;;;;;;;6.73;6.03;;;;;;;;;;5043854;28;20635;-83
2022/05/04 07:11:53;;;;;;;8.60;5.80;;;;;;;;;;5046036;28;20671;-83
2022/05/04 07:14:20;;;;;;;7.13;5.70;;;;;;;;;;5044648;28;20238;-83
2022/05/04 07:16:49;;;;;;;9.40;6.47;;;;;;;;;;5037362;28;20234;-83
2022/05/04 07:19:16;;;;;;;7.40;6.17;;;;;;;;;;5034591;28;20765;-83
2022/05/04 07:21:43;;;;;;;6.70;6.03;;;;;;;;;;5037327;28;20694;-83
2022/05/04 07:24:13;;;;;;;10.13;6.37;;;;;;;;;;5032672;28;20230;-84
2022/05/04 07:26:40;;;;;;;7.10;6.40;;;;;;;;;;5040713;28;20225;-84
2022/05/04 07:29:07;;;;;;;9.87;6.33;;;;;;;;;;5043983;28;20239;-83
2022/05/04 07:31:35;;;;;;;6.87;6.20;;;;;;;;;;5028897;28;20207;-83
2022/05/04 07:34:04;;;;;;;6.83;6.13;;;;;;;;;;5012207;28;20576;-83
2022/05/04 07:36:32;;;;;;;7.33;6.27;;;;;;;;;;5020939;28;20234;-82
2022/05/04 07:38:59;;;;;;;7.90;6.00;;;;;;;;;;5041068;28;20238;-83
2022/05/04 07:44:13;;;;;;;7.67;5.63;;;;;;;;;;5026336;28;20303;-83
2022/05/04 07:46:41;;;;;;;7.97;6.20;;;;;;;;;;5051857;28;20603;-82
2022/05/04 07:49:10;;;;;;;8.23;6.37;;;;;;;;;;5045824;28;20234;-83
2022/05/04 07:51:37;;;;;;;7.87;5.80;;;;;;;;;;5046648;28;20202;-83
2022/05/04 07:54:04;;;;;;;10.33;6.17;;;;;;;;;;5052132;28;20649;-84
2022/05/04 07:56:31;;;;;;;7.97;6.27;;;;;;;;;;5051939;28;20254;-84
2022/05/04 07:58:58;;;;;;;6.80;5.97;;;;;;;;;;5050175;28;20241;-83
2022/05/04 08:04:18;;;;;;;6.23;5.63;;;;;;;;;;5034082;28;20237;-82
2022/05/04 08:06:45;;;;;;;9.23;6.43;;;;;;;;;;5033462;28;20234;-83
2022/05/04 08:09:12;;;;;;;7.43;5.93;;;;;;;;;;5026381;28;20239;-84
2022/05/04 08:11:39;;;;;;;7.33;6.20;;;;;;;;;;5011878;28;20203;-82
2022/05/04 08:14:07;;;;;;;10.80;6.23;;;;;;;;;;5011815;28;20834;-83
2022/05/04 08:16:34;;;;;;;6.40;5.80;;;;;;;;;;5012242;28;20231;-83
2022/05/04 08:19:03;;;;;;;12.80;6.67;;;;;;;;;;5011486;28;20235;-83
2022/05/04 08:21:32;;;;;;;7.53;6.40;;;;;;;;;;5011899;28;20237;-83
2022/05/04 08:23:59;;;;;;;10.57;6.17;;;;;;;;;;5032747;28;20697;-84
2022/05/04 08:26:26;;;;;;;10.03;6.57;;;;;;;;;;5044948;28;20280;-84
2022/05/04 08:28:53;;;;;;;9.53;6.73;;;;;;;;;;5051414;28;20677;-83
2022/05/04 08:31:21;;;;;;;9.57;7.37;;;;;;;;;;5051334;28;20210;-82
2022/05/04 08:33:48;;;;;;;10.17;6.60;;;;;;;;;;5050942;28;20321;-83
2022/05/04 08:36:16;;;;;;;10.07;6.73;;;;;;;;;;5051621;28;20240;-84
2022/05/04 08:38:44;;;;;;;8.17;6.43;;;;;;;;;;5050920;28;20209;-83
2022/05/04 08:41:11;;;;;;;8.37;6.23;;;;;;;;;;5051681;28;20202;-83
2022/05/04 08:43:40;;;;;;;9.83;6.50;;;;;;;;;;5051144;28;20217;-83
2022/05/04 08:46:07;;;;;;;7.47;6.30;;;;;;;;;;5051473;28;20272;-83
2022/05/04 08:48:35;;;;;;;8.57;6.80;;;;;;;;;;5050548;28;20197;-84
2022/05/04 08:51:03;;;;;;;9.77;6.83;;;;;;;;;;5051237;28;20213;-84
2022/05/04 08:53:31;;;;;;;9.10;6.83;;;;;;;;;;5050972;28;20202;-83
2022/05/04 08:55:59;;;;;;;7.30;6.57;;;;;;;;;;5051757;28;20232;-84
2022/05/04 08:58:27;;;;;;;8.03;7.23;;;;;;;;;;5051691;28;20245;-83
2022/05/04 09:00:54;;;;;;;9.83;7.27;;;;;;;;;;5050432;28;20717;-84
2022/05/04 09:03:21;;;;;;;7.33;6.63;;;;;;;;;;5052147;28;20201;-84
2022/05/04 09:05:50;;;;;;;9.50;7.27;;;;;;;;;;5050878;28;20245;-84
2022/05/04 09:08:17;;;;;;;7.67;6.83;;;;;;;;;;5051734;28;20217;-84
2022/05/04 09:10:45;;;;;;;9.40;6.77;;;;;;;;;;5038031;28;20698;-84
2022/05/04 09:13:14;;;;;;;7.60;6.90;;;;;;;;;;5051741;28;20198;-84
2022/05/04 09:15:41;;;;;;;8.77;7.63;;;;;;;;;;5050662;28;20238;-84
2022/05/04 09:18:09;;;;;;;13.77;7.40;;;;;;;;;;5042540;28;20245;-84
2022/05/04 09:20:53;;;;;;;8.63;7.23;;;;;;;;;;5050068;28;20237;-84
2022/05/04 09:23:21;;;;;;;11.57;7.57;;;;;;;;;;5037308;28;20202;-83
2022/05/04 09:25:50;;;;;;;10.33;7.10;;;;;;;;;;5030675;28;20243;-84
2022/05/04 09:28:19;;;;;;;7.63;6.87;;;;;;;;;;5031521;28;20269;-84
2022/05/04 09:30:47;;;;;;;7.23;6.53;;;;;;;;;;5029939;28;20242;-84
2022/05/04 09:33:18;;;;;;;10.57;7.77;;;;;;;;;;5037380;28;20210;-83
2022/05/04 09:35:45;;;;;;;8.00;6.80;;;;;;;;;;5032754;28;20243;-84
2022/05/04 09:46:34;;;;;;;8.10;7.30;;;;;;;;;;5044973;28;20356;-84
2022/05/04 09:49:09;;;;;;;9.57;7.33;;;;;;;;;;5051019;28;20292;-83
2022/05/04 09:51:37;;;;;;;9.40;7.40;;;;;;;;;;5060396;28;20206;-84
2022/05/04 09:54:13;;;;;;;10.87;7.43;;;;;;;;;;5051851;28;20237;-85
2022/05/04 09:56:40;;;;;;;10.70;8.13;;;;;;;;;;5052053;28;20225;-84
2022/05/04 09:59:09;;;;;;;7.87;7.17;;;;;;;;;;5051155;28;20233;-84
2022/05/04 10:01:37;;;;;;;9.20;8.10;;;;;;;;;;5054338;28;20209;-85
2022/05/04 10:04:04;;;;;;;9.53;8.27;;;;;;;;;;5054618;28;20230;-84
2022/05/04 10:06:32;;;;;;;8.93;7.20;;;;;;;;;;5054555;28;20229;-84
2022/05/04 10:09:00;;;;;;;10.17;7.83;;;;;;;;;;5022619;28;20231;-83
2022/05/04 10:11:27;;;;;;;11.37;8.43;;;;;;;;;;5033899;28;20257;-85
2022/05/04 10:13:55;;;;;;;10.37;8.60;;;;;;;;;;5050544;28;20275;-85
2022/05/04 10:16:24;;;;;;;10.30;8.43;;;;;;;;;;5054339;28;20218;-85
2022/05/04 10:18:52;;;;;;;9.50;8.60;;;;;;;;;;5053774;28;20240;-85
2022/05/04 10:21:19;;;;;;;10.13;7.60;;;;;;;;;;5054125;28;20198;-84
2022/05/04 10:23:48;;;;;;;8.45;7.63;;;;;;;;;;5037375;28;20261;-85
2022/05/04 10:26:17;;;;;;;8.77;7.68;;;;;;;;;;5054173;28;20229;-85
2022/05/04 10:30:30;;;;;;;8.77;7.68;;;;;;;;;;5053561;28;20736;-84
2022/05/04 10:31:34;;;;;;;9.07;7.72;;;;;;;;;;5047464;28;20872;-85
2022/05/04 10:34:03;;;;;;;11.65;8.15;;;;;;;;;;5016269;28;20227;-85
2022/05/04 10:36:31;;;;;;;9.40;7.93;;;;;;;;;;5047316;28;20225;-84
2022/05/04 10:38:59;;;;;;;8.75;7.22;;;;;;;;;;5053336;28;20245;-85
2022/05/04 10:41:35;;;;;;;8.43;7.22;;;;;;;;;;5053579;28;20202;-85
2022/05/04 10:44:03;;;;;;;8.27;7.47;;;;;;;;;;5029435;28;20226;-85
2022/05/04 10:46:33;;;;;;;8.73;7.93;;;;;;;;;;5014682;28;20231;-85
2022/05/04 10:49:03;;;;;;;10.05;7.22;;;;;;;;;;5012769;28;20614;-84
2022/05/04 10:51:31;;;;;;;11.10;8.50;;;;;;;;;;5013674;28;20207;-85
2022/05/04 10:53:59;;;;;;;7.80;7.07;;;;;;;;;;5013535;28;20948;-85
2022/05/04 10:56:27;;;;;;;8.30;7.50;;;;;;;;;;5015114;28;20262;-87
2022/05/04 10:58:56;;;;;;;7.90;7.20;;;;;;;;;;5013975;28;20234;-87
2022/05/04 11:01:24;;;;;;;7.72;6.78;;;;;;;;;;5014036;28;20211;-88
2022/05/04 11:03:53;;;;;;;7.57;6.35;;;;;;;;;;5013720;28;20235;-87
2022/05/04 11:08:49;;;;;;;7.97;6.50;;;;;;;;;;5020947;23;20228;-89
2022/05/04 11:11:16;;;;;;;6.95;6.28;;;;;;;;;;5012266;28;20691;-90
2022/05/04 11:13:44;;;;;;;8.85;6.30;;;;;;;;;;5015033;28;20215;-90
2022/05/04 11:16:11;;;;;;;6.75;6.05;;;;;;;;;;5013409;28;20861;-90
2022/05/04 11:18:38;;;;;;;6.15;5.55;;;;;;;;;;5014040;28;20261;-89
2022/05/04 11:21:11;;;;;;;6.90;6.30;;;;;;;;;;5032968;28;20214;-90
2022/05/04 11:23:38;;;;;;;6.60;5.80;;;;;;;;;;5046006;28;20255;-90
2022/05/04 11:26:07;;;;;;;6.50;5.88;;;;;;;;;;5053099;28;20214;-90
2022/05/04 11:28:35;;;;;;;6.25;5.53;;;;;;;;;;5043193;28;20625;-90
2022/05/04 11:31:02;;;;;;;5.78;5.18;;;;;;;;;;5015195;28;20203;-90
2022/05/04 11:33:29;;;;;;;5.97;5.47;;;;;;;;;;5015189;28;20218;-90
2022/05/04 11:35:57;;;;;;;5.80;5.18;;;;;;;;;;5034169;28;20702;-90
2022/05/04 11:38:24;;;;;;;6.43;5.28;;;;;;;;;;5034921;28;20242;-89
2022/05/04 11:40:52;;;;;;;5.43;4.93;;;;;;;;;;5013940;28;20729;-90
2022/05/04 11:43:27;;;;;;;5.32;4.43;;;;;;;;;;5015707;28;20207;-90
2022/05/04 11:45:54;;;;;;;6.22;5.47;;;;;;;;;;5033089;28;20257;-89
2022/05/04 11:48:22;;;;;;;6.07;5.40;;;;;;;;;;5034042;28;20230;-90
2022/05/04 11:50:49;;;;;;;5.80;5.30;;;;;;;;;;5012474;28;20237;-90
2022/05/04 11:53:16;;;;;;;5.60;5.10;;;;;;;;;;5013393;28;20211;-90
2022/05/04 11:55:43;;;;;;;5.53;5.03;;;;;;;;;;5031118;28;20234;-90
2022/05/04 11:58:11;;;;;;;6.95;4.90;;;;;;;;;;5033511;28;20595;-88
2022/05/04 12:00:40;;;;;;;8.25;5.05;;;;;;;;;;5015082;28;20618;-89
2022/05/04 12:03:07;;;;;;;5.18;4.68;;;;;;;;;;5015792;28;20207;-89
2022/05/04 12:05:35;;;;;;;6.20;5.68;;;;;;;;;;5030450;28;20234;-90
2022/05/04 12:08:04;;;;;;;6.57;5.97;;;;;;;;;;5019469;28;20608;-90
2022/05/04 12:10:31;;;;;;;6.53;5.80;;;;;;;;;;4995161;28;20320;-90
2022/05/04 12:12:59;;;;;;;7.90;5.65;;;;;;;;;;4992779;28;20215;-90
2022/05/04 12:15:28;;;;;;;7.57;6.30;;;;;;;;;;5024726;28;20262;-90
2022/05/04 12:18:00;;;;;;;7.57;5.85;;;;;;;;;;5032249;28;20706;-90
2022/05/04 12:20:27;;;;;;;6.18;5.53;;;;;;;;;;5031096;28;20316;-90
2022/05/04 12:22:54;;;;;;;6.40;5.80;;;;;;;;;;5031114;28;20210;-90
2022/05/04 12:25:21;;;;;;;6.57;5.75;;;;;;;;;;5030609;28;20230;-89
2022/05/04 12:27:48;;;;;;;5.97;5.10;;;;;;;;;;5031591;28;20234;-89
2022/05/04 12:33:11;;;;;;;5.35;4.85;;;;;;;;;;5001447;28;20580;-90
2022/05/04 12:35:39;;;;;;;5.40;4.90;;;;;;;;;;5011808;28;20239;-90
2022/05/04 12:38:07;;;;;;;5.30;4.80;;;;;;;;;;5011613;28;20235;-90
2022/05/04 12:40:34;;;;;;;6.57;5.50;;;;;;;;;;5010544;28;20235;-89
2022/05/04 12:43:03;;;;;;;6.07;5.38;;;;;;;;;;5012129;28;20274;-90
2022/05/04 12:45:30;;;;;;;5.20;4.80;;;;;;;;;;5011560;28;20235;-90
2022/05/04 12:47:58;;;;;;;6.38;5.20;;;;;;;;;;5011757;28;20250;-90
2022/05/04 12:50:27;;;;;;;5.53;5.05;;;;;;;;;;5010029;28;20231;-90
2022/05/04 12:52:54;;;;;;;5.22;4.72;;;;;;;;;;5011516;28;20211;-90
2022/05/04 12:56:45;;;;;;;5.00;4.50;;;;;;;;;;5011530;28;20234;-89
2022/05/04 12:58:09;;;;;;;6.20;5.60;;;;;;;;;;5010934;28;20231;-90
2022/05/04 13:00:36;;;;;;;5.03;4.50;;;;;;;;;;5010431;28;20246;-90
2022/05/04 13:03:07;;;;;;;5.28;4.15;;;;;;;;;;5011208;28;20210;-90
2022/05/04 13:05:35;;;;;;;4.53;4.05;;;;;;;;;;5011920;28;20231;-90
2022/05/04 13:08:02;;;;;;;4.90;4.50;;;;;;;;;;5012129;28;20243;-90
2022/05/04 13:10:29;;;;;;;4.75;4.32;;;;;;;;;;5009715;28;20239;-90
2022/05/04 13:12:56;;;;;;;5.28;4.63;;;;;;;;;;5011250;28;20207;-90
2022/05/04 13:15:23;;;;;;;4.75;4.03;;;;;;;;;;5011161;28;20247;-91
2022/05/04 13:17:51;;;;;;;5.18;3.95;;;;;;;;;;5011028;28;20227;-91
2022/05/04 13:20:18;;;;;;;6.13;4.22;;;;;;;;;;5011865;28;20322;-90
2022/05/04 13:22:47;;;;;;;5.57;4.13;;;;;;;;;;5011990;28;20230;-90
2022/05/04 13:25:15;;;;;;;5.00;4.38;;;;;;;;;;5011466;28;20278;-90
2022/05/04 13:27:42;;;;;;;4.18;3.88;;;;;;;;;;5011247;28;20234;-90
2022/05/04 13:30:10;;;;;;;4.60;4.20;;;;;;;;;;5012502;28;20243;-88
2022/05/04 13:32:37;;;;;;;5.72;4.25;;;;;;;;;;5041947;28;20210;-90
2022/05/04 13:35:04;;;;;;;5.65;4.30;;;;;;;;;;5034654;28;20242;-90
2022/05/04 13:37:31;;;;;;;6.25;4.43;;;;;;;;;;5037464;28;20231;-90
2022/05/04 13:39:59;;;;;;;4.93;4.43;;;;;;;;;;5034650;28;20234;-91
2022/05/04 13:42:26;;;;;;;4.90;4.43;;;;;;;;;;5035459;28;20214;-91
2022/05/04 13:44:54;;;;;;;5.25;4.28;;;;;;;;;;5034919;28;20261;-90
2022/05/04 13:47:21;;;;;;;5.10;4.57;;;;;;;;;;5035119;28;20230;-91
2022/05/04 13:49:48;;;;;;;4.53;4.10;;;;;;;;;;5035156;28;20246;-91
2022/05/04 13:55:01;;;;;;;5.57;3.90;;;;;;;;;;5034901;28;20333;-90
2022/05/04 13:57:31;;;;;;;5.03;4.47;;;;;;;;;;5035601;28;20226;-91
2022/05/04 13:59:58;;;;;;;4.85;4.15;;;;;;;;;;5034212;28;20690;-91
2022/05/04 14:02:25;;;;;;;6.85;4.88;;;;;;;;;;5037073;28;20207;-91
2022/05/04 14:04:52;;;;;;;5.28;4.30;;;;;;;;;;5056593;28;20225;-90
2022/05/04 14:07:19;;;;;;;6.32;4.07;;;;;;;;;;5056201;28;20234;-88
2022/05/04 14:09:46;;;;;;;9.05;4.28;;;;;;;;;;5054790;28;20647;-89
2022/05/04 14:12:16;;;;;;;7.38;4.35;;;;;;;;;;5058105;28;20211;-88
2022/05/04 14:17:27;;;;;;;7.53;4.35;;;;;;;;;;5034635;28;20277;-90
2022/05/04 14:19:54;;;;;;;4.63;4.20;;;;;;;;;;5008665;28;20243;-89
2022/05/04 14:22:22;;;;;;;4.55;4.15;;;;;;;;;;4994046;28;20208;-91
2022/05/04 14:24:49;;;;;;;5.57;4.63;;;;;;;;;;4994898;28;20243;-91
2022/05/04 14:27:17;;;;;;;5.38;4.50;;;;;;;;;;4995279;28;20250;-91
2022/05/04 14:29:44;;;;;;;5.53;4.10;;;;;;;;;;4995174;28;20243;-91
2022/05/04 14:32:11;;;;;;;4.72;4.28;;;;;;;;;;4994461;28;20223;-90
2022/05/04 14:34:38;;;;;;;4.47;4.00;;;;;;;;;;4994827;28;20232;-90
2022/05/04 14:37:05;;;;;;;6.82;4.35;;;;;;;;;;5008665;28;20231;-89
2022/05/04 14:39:33;;;;;;;5.07;4.57;;;;;;;;;;5014694;28;20242;-90
2022/05/04 14:42:00;;;;;;;4.63;4.05;;;;;;;;;;5020408;28;20222;-90
2022/05/04 14:44:28;;;;;;;5.53;4.40;;;;;;;;;;5015006;28;20239;-90
2022/05/04 14:46:55;;;;;;;4.43;4.03;;;;;;;;;;5013817;28;20231;-90
2022/05/04 14:49:22;;;;;;;7.13;4.55;;;;;;;;;;5014634;28;20271;-90
2022/05/04 14:51:50;;;;;;;7.47;4.00;;;;;;;;;;5014323;28;20215;-89
2022/05/04 14:54:17;;;;;;;4.68;4.22;;;;;;;;;;5014374;28;20684;-86
2022/05/04 14:56:44;;;;;;;7.28;4.90;;;;;;;;;;5013783;28;20236;-85
2022/05/04 14:59:11;;;;;;;5.45;4.95;;;;;;;;;;5013082;28;20235;-87
2022/05/04 15:01:39;;;;;;;5.30;4.80;;;;;;;;;;5013589;28;20211;-86
2022/05/04 15:06:52;;;;;;;5.50;4.97;;;;;;;;;;5013156;28;20259;-86
2022/05/04 15:09:19;;;;;;;5.47;4.80;;;;;;;;;;5012736;28;20615;-86
2022/05/04 15:11:46;;;;;;;4.90;4.32;;;;;;;;;;5012217;28;20235;-85
2022/05/04 15:14:13;;;;;;;5.20;4.80;;;;;;;;;;5013128;28;20242;-86
2022/05/04 15:16:42;;;;;;;5.88;4.95;;;;;;;;;;5012700;28;20231;-85
2022/05/04 15:19:09;;;;;;;5.07;4.68;;;;;;;;;;5007996;28;20286;-86
2022/05/04 15:21:37;;;;;;;5.45;4.68;;;;;;;;;;5010599;28;20199;-84
2022/05/04 15:24:04;;;;;;;6.53;4.03;;;;;;;;;;5012313;28;20347;-86
2022/05/04 15:26:32;;;;;;;4.75;4.32;;;;;;;;;;5013263;28;20231;-85